sensor_id;sensor_type;location;lat;lon;timestamp;P1;durP1;ratioP1;P2;durP2;ratioP2
51995;SDS011;38010;53.264;6.592;2023-04-25T00:01:17;2.13;;;1.00;;
51995;SDS011;38010;53.264;6.592;2023-04-25T00:03:43;1.85;;;1.00;;
51995;SDS011;38010;53.264;6.592;2023-04-25T00:06:10;1.15;;;0.88;;
51995;SDS011;38010;53.264;6.592;2023-04-25T00:08:36;2.13;;;1.05;;
51995;SDS011;38010;53.264;6.592;2023-04-25T00:11:02;1.85;;;1.00;;
51995;SDS011;38010;53.264;6.592;2023-04-25T00:13:28;2.33;;;0.98;;
51995;SDS011;38010;53.264;6.592;2023-04-25T00:15:54;1.65;;;1.00;;
51995;SDS011;38010;53.264;6.592;2023-04-25T00:18:21;0.93;;;0.80;;
51995;SDS011;38010;53.264;6.592;2023-04-25T00:20:47;1.52;;;0.82;;
51995;SDS011;38010;53.264;6.592;2023-04-25T00:23:13;1.40;;;0.90;;
51995;SDS011;38010;53.264;6.592;2023-04-25T00:25:46;1.17;;;0.80;;
51995;SDS011;38010;53.264;6.592;2023-04-25T00:28:12;1.20;;;0.68;;
51995;SDS011;38010;53.264;6.592;2023-04-25T00:30:39;2.17;;;1.10;;
51995;SDS011;38010;53.264;6.592;2023-04-25T00:33:05;2.60;;;0.95;;
51995;SDS011;38010;53.264;6.592;2023-04-25T00:35:31;2.05;;;1.10;;
51995;SDS011;38010;53.264;6.592;2023-04-25T00:37:57;1.73;;;0.85;;
51995;SDS011;38010;53.264;6.592;2023-04-25T00:40:22;1.23;;;0.80;;
51995;SDS011;38010;53.264;6.592;2023-04-25T00:42:49;1.98;;;1.10;;
51995;SDS011;38010;53.264;6.592;2023-04-25T00:45:16;2.47;;;1.20;;
51995;SDS011;38010;53.264;6.592;2023-04-25T00:47:43;1.42;;;0.85;;
51995;SDS011;38010;53.264;6.592;2023-04-25T00:50:09;1.88;;;1.02;;
51995;SDS011;38010;53.264;6.592;2023-04-25T00:52:36;2.00;;;0.90;;
51995;SDS011;38010;53.264;6.592;2023-04-25T00:55:06;2.75;;;1.27;;
51995;SDS011;38010;53.264;6.592;2023-04-25T00:57:33;1.52;;;0.80;;
51995;SDS011;38010;53.264;6.592;2023-04-25T00:59:59;1.52;;;0.80;;
51995;SDS011;38010;53.264;6.592;2023-04-25T01:02:25;1.42;;;0.70;;
51995;SDS011;38010;53.264;6.592;2023-04-25T01:04:52;2.05;;;1.17;;
51995;SDS011;38010;53.264;6.592;2023-04-25T01:07:18;1.75;;;1.00;;
51995;SDS011;38010;53.264;6.592;2023-04-25T01:09:45;2.97;;;0.90;;
51995;SDS011;38010;53.264;6.592;2023-04-25T01:12:11;1.38;;;0.80;;
51995;SDS011;38010;53.264;6.592;2023-04-25T01:14:38;2.70;;;0.80;;
51995;SDS011;38010;53.264;6.592;2023-04-25T01:17:04;2.13;;;0.85;;
51995;SDS011;38010;53.264;6.592;2023-04-25T01:19:30;3.08;;;0.80;;
51995;SDS011;38010;53.264;6.592;2023-04-25T01:21:56;1.08;;;0.77;;
51995;SDS011;38010;53.264;6.592;2023-04-25T01:24:22;1.88;;;1.05;;
51995;SDS011;38010;53.264;6.592;2023-04-25T01:26:48;1.85;;;1.02;;
51995;SDS011;38010;53.264;6.592;2023-04-25T01:29:19;1.58;;;0.73;;
51995;SDS011;38010;53.264;6.592;2023-04-25T01:31:46;1.98;;;0.98;;
51995;SDS011;38010;53.264;6.592;2023-04-25T01:34:12;1.35;;;1.00;;
51995;SDS011;38010;53.264;6.592;2023-04-25T01:36:38;1.98;;;1.00;;
51995;SDS011;38010;53.264;6.592;2023-04-25T01:39:05;2.10;;;0.82;;
51995;SDS011;38010;53.264;6.592;2023-04-25T01:41:31;2.13;;;1.00;;
51995;SDS011;38010;53.264;6.592;2023-04-25T01:43:57;1.92;;;0.90;;
51995;SDS011;38010;53.264;6.592;2023-04-25T01:46:23;1.65;;;0.77;;
51995;SDS011;38010;53.264;6.592;2023-04-25T01:48:49;2.40;;;0.95;;
51995;SDS011;38010;53.264;6.592;2023-04-25T01:51:15;1.33;;;0.95;;
51995;SDS011;38010;53.264;6.592;2023-04-25T01:53:41;1.73;;;1.02;;
51995;SDS011;38010;53.264;6.592;2023-04-25T01:56:07;1.30;;;0.95;;
51995;SDS011;38010;53.264;6.592;2023-04-25T01:58:33;1.27;;;0.80;;
51995;SDS011;38010;53.264;6.592;2023-04-25T02:00:59;1.70;;;0.75;;
51995;SDS011;38010;53.264;6.592;2023-04-25T02:03:24;1.85;;;0.80;;
51995;SDS011;38010;53.264;6.592;2023-04-25T02:05:50;1.85;;;0.73;;
51995;SDS011;38010;53.264;6.592;2023-04-25T02:08:16;1.67;;;0.70;;
51995;SDS011;38010;53.264;6.592;2023-04-25T02:10:42;1.60;;;0.90;;
51995;SDS011;38010;53.264;6.592;2023-04-25T02:13:08;1.58;;;0.70;;
51995;SDS011;38010;53.264;6.592;2023-04-25T02:15:34;1.05;;;0.65;;
51995;SDS011;38010;53.264;6.592;2023-04-25T02:18:00;1.27;;;0.73;;
51995;SDS011;38010;53.264;6.592;2023-04-25T02:20:29;1.67;;;0.65;;
51995;SDS011;38010;53.264;6.592;2023-04-25T02:22:55;2.15;;;0.90;;
51995;SDS011;38010;53.264;6.592;2023-04-25T02:25:21;1.65;;;0.90;;
51995;SDS011;38010;53.264;6.592;2023-04-25T02:27:47;1.92;;;0.70;;
51995;SDS011;38010;53.264;6.592;2023-04-25T02:30:13;1.63;;;0.80;;
51995;SDS011;38010;53.264;6.592;2023-04-25T02:32:40;1.33;;;0.75;;
51995;SDS011;38010;53.264;6.592;2023-04-25T02:35:06;2.15;;;1.00;;
51995;SDS011;38010;53.264;6.592;2023-04-25T02:37:33;1.48;;;0.82;;
51995;SDS011;38010;53.264;6.592;2023-04-25T02:39:59;1.35;;;0.80;;
51995;SDS011;38010;53.264;6.592;2023-04-25T02:42:25;1.73;;;0.73;;
51995;SDS011;38010;53.264;6.592;2023-04-25T02:44:52;1.60;;;0.70;;
51995;SDS011;38010;53.264;6.592;2023-04-25T02:47:17;1.58;;;0.80;;
51995;SDS011;38010;53.264;6.592;2023-04-25T02:49:43;1.33;;;0.70;;
51995;SDS011;38010;53.264;6.592;2023-04-25T02:52:10;0.88;;;0.60;;
51995;SDS011;38010;53.264;6.592;2023-04-25T02:54:36;1.52;;;0.70;;
51995;SDS011;38010;53.264;6.592;2023-04-25T02:57:02;1.48;;;0.77;;
51995;SDS011;38010;53.264;6.592;2023-04-25T02:59:28;0.90;;;0.70;;
51995;SDS011;38010;53.264;6.592;2023-04-25T03:01:53;2.28;;;1.00;;
51995;SDS011;38010;53.264;6.592;2023-04-25T03:04:19;1.13;;;0.70;;
51995;SDS011;38010;53.264;6.592;2023-04-25T03:06:46;0.80;;;0.50;;
51995;SDS011;38010;53.264;6.592;2023-04-25T03:09:11;0.68;;;0.52;;
51995;SDS011;38010;53.264;6.592;2023-04-25T03:11:38;0.88;;;0.68;;
51995;SDS011;38010;53.264;6.592;2023-04-25T03:14:04;2.67;;;0.80;;
51995;SDS011;38010;53.264;6.592;2023-04-25T03:16:30;1.85;;;0.73;;
51995;SDS011;38010;53.264;6.592;2023-04-25T03:18:56;0.65;;;0.65;;
51995;SDS011;38010;53.264;6.592;2023-04-25T03:21:22;1.27;;;0.75;;
51995;SDS011;38010;53.264;6.592;2023-04-25T03:23:48;2.40;;;0.77;;
51995;SDS011;38010;53.264;6.592;2023-04-25T03:26:13;0.82;;;0.60;;
51995;SDS011;38010;53.264;6.592;2023-04-25T03:28:39;1.27;;;0.88;;
51995;SDS011;38010;53.264;6.592;2023-04-25T03:31:05;1.58;;;0.70;;
51995;SDS011;38010;53.264;6.592;2023-04-25T03:33:31;0.90;;;0.70;;
51995;SDS011;38010;53.264;6.592;2023-04-25T03:35:57;1.73;;;0.98;;
51995;SDS011;38010;53.264;6.592;2023-04-25T03:38:22;1.23;;;0.70;;
51995;SDS011;38010;53.264;6.592;2023-04-25T03:40:48;0.98;;;0.75;;
51995;SDS011;38010;53.264;6.592;2023-04-25T03:43:15;1.83;;;0.90;;
51995;SDS011;38010;53.264;6.592;2023-04-25T03:45:41;1.45;;;0.75;;
51995;SDS011;38010;53.264;6.592;2023-04-25T03:48:07;1.55;;;0.80;;
51995;SDS011;38010;53.264;6.592;2023-04-25T03:50:33;0.82;;;0.70;;
51995;SDS011;38010;53.264;6.592;2023-04-25T03:52:59;1.15;;;0.70;;
51995;SDS011;38010;53.264;6.592;2023-04-25T03:55:24;1.48;;;0.77;;
51995;SDS011;38010;53.264;6.592;2023-04-25T03:57:50;1.45;;;0.70;;
51995;SDS011;38010;53.264;6.592;2023-04-25T04:00:16;2.15;;;0.95;;
51995;SDS011;38010;53.264;6.592;2023-04-25T04:02:42;2.15;;;0.77;;
51995;SDS011;38010;53.264;6.592;2023-04-25T04:05:07;0.68;;;0.55;;
51995;SDS011;38010;53.264;6.592;2023-04-25T04:07:34;1.58;;;0.70;;
51995;SDS011;38010;53.264;6.592;2023-04-25T04:10:05;1.83;;;0.73;;
51995;SDS011;38010;53.264;6.592;2023-04-25T04:12:31;1.50;;;0.70;;
51995;SDS011;38010;53.264;6.592;2023-04-25T04:14:57;1.25;;;0.70;;
51995;SDS011;38010;53.264;6.592;2023-04-25T04:17:23;0.93;;;0.63;;
51995;SDS011;38010;53.264;6.592;2023-04-25T04:19:48;0.70;;;0.50;;
51995;SDS011;38010;53.264;6.592;2023-04-25T04:22:14;0.93;;;0.60;;
51995;SDS011;38010;53.264;6.592;2023-04-25T04:24:40;1.40;;;0.68;;
51995;SDS011;38010;53.264;6.592;2023-04-25T04:27:09;2.22;;;0.77;;
51995;SDS011;38010;53.264;6.592;2023-04-25T04:29:35;2.45;;;1.10;;
51995;SDS011;38010;53.264;6.592;2023-04-25T04:32:01;1.58;;;1.02;;
51995;SDS011;38010;53.264;6.592;2023-04-25T04:34:28;1.52;;;0.60;;
51995;SDS011;38010;53.264;6.592;2023-04-25T04:36:54;1.90;;;0.77;;
51995;SDS011;38010;53.264;6.592;2023-04-25T04:39:20;1.13;;;0.60;;
51995;SDS011;38010;53.264;6.592;2023-04-25T04:41:46;0.93;;;0.50;;
51995;SDS011;38010;53.264;6.592;2023-04-25T04:44:12;1.50;;;0.70;;
51995;SDS011;38010;53.264;6.592;2023-04-25T04:46:39;0.88;;;0.57;;
51995;SDS011;38010;53.264;6.592;2023-04-25T04:49:05;1.75;;;0.70;;
51995;SDS011;38010;53.264;6.592;2023-04-25T04:51:31;1.25;;;0.60;;
51995;SDS011;38010;53.264;6.592;2023-04-25T04:53:58;0.65;;;0.60;;
51995;SDS011;38010;53.264;6.592;2023-04-25T04:56:27;1.52;;;0.80;;
51995;SDS011;38010;53.264;6.592;2023-04-25T04:58:56;0.77;;;0.60;;
51995;SDS011;38010;53.264;6.592;2023-04-25T05:01:25;1.42;;;0.75;;
51995;SDS011;38010;53.264;6.592;2023-04-25T05:03:51;1.27;;;0.60;;
51995;SDS011;38010;53.264;6.592;2023-04-25T05:06:18;1.70;;;0.80;;
51995;SDS011;38010;53.264;6.592;2023-04-25T05:08:44;0.68;;;0.60;;
51995;SDS011;38010;53.264;6.592;2023-04-25T05:11:10;1.08;;;0.60;;
51995;SDS011;38010;53.264;6.592;2023-04-25T05:13:36;1.80;;;0.65;;
51995;SDS011;38010;53.264;6.592;2023-04-25T05:16:02;0.70;;;0.55;;
51995;SDS011;38010;53.264;6.592;2023-04-25T05:18:28;1.02;;;0.50;;
51995;SDS011;38010;53.264;6.592;2023-04-25T05:20:54;1.50;;;0.57;;
51995;SDS011;38010;53.264;6.592;2023-04-25T05:23:20;1.00;;;0.60;;
51995;SDS011;38010;53.264;6.592;2023-04-25T05:25:46;1.20;;;0.50;;
51995;SDS011;38010;53.264;6.592;2023-04-25T05:28:12;1.10;;;0.60;;
51995;SDS011;38010;53.264;6.592;2023-04-25T05:30:38;1.85;;;0.68;;
51995;SDS011;38010;53.264;6.592;2023-04-25T05:33:04;0.60;;;0.50;;
51995;SDS011;38010;53.264;6.592;2023-04-25T05:35:30;0.68;;;0.50;;
51995;SDS011;38010;53.264;6.592;2023-04-25T05:37:56;1.35;;;0.70;;
51995;SDS011;38010;53.264;6.592;2023-04-25T05:40:22;1.52;;;0.70;;
51995;SDS011;38010;53.264;6.592;2023-04-25T05:42:47;0.88;;;0.55;;
51995;SDS011;38010;53.264;6.592;2023-04-25T05:45:13;0.57;;;0.50;;
51995;SDS011;38010;53.264;6.592;2023-04-25T05:47:39;0.95;;;0.50;;
51995;SDS011;38010;53.264;6.592;2023-04-25T05:50:05;1.08;;;0.50;;
51995;SDS011;38010;53.264;6.592;2023-04-25T05:52:31;0.85;;;0.60;;
51995;SDS011;38010;53.264;6.592;2023-04-25T05:54:57;0.60;;;0.50;;
51995;SDS011;38010;53.264;6.592;2023-04-25T05:57:23;0.52;;;0.43;;
51995;SDS011;38010;53.264;6.592;2023-04-25T05:59:52;1.52;;;0.70;;
51995;SDS011;38010;53.264;6.592;2023-04-25T06:02:19;0.98;;;0.73;;
51995;SDS011;38010;53.264;6.592;2023-04-25T06:04:46;1.05;;;0.70;;
51995;SDS011;38010;53.264;6.592;2023-04-25T06:07:12;2.50;;;0.65;;
51995;SDS011;38010;53.264;6.592;2023-04-25T06:09:38;3.45;;;0.70;;
51995;SDS011;38010;53.264;6.592;2023-04-25T06:12:05;1.63;;;0.82;;
51995;SDS011;38010;53.264;6.592;2023-04-25T06:14:31;2.65;;;0.80;;
51995;SDS011;38010;53.264;6.592;2023-04-25T06:16:57;1.15;;;0.60;;
51995;SDS011;38010;53.264;6.592;2023-04-25T06:19:23;1.10;;;0.75;;
51995;SDS011;38010;53.264;6.592;2023-04-25T06:21:48;3.03;;;0.70;;
51995;SDS011;38010;53.264;6.592;2023-04-25T06:24:14;1.70;;;0.70;;
51995;SDS011;38010;53.264;6.592;2023-04-25T06:26:40;1.17;;;0.70;;
51995;SDS011;38010;53.264;6.592;2023-04-25T06:29:06;1.67;;;0.70;;
51995;SDS011;38010;53.264;6.592;2023-04-25T06:31:31;1.60;;;0.60;;
51995;SDS011;38010;53.264;6.592;2023-04-25T06:34:00;1.60;;;0.70;;
51995;SDS011;38010;53.264;6.592;2023-04-25T06:36:26;0.80;;;0.70;;
51995;SDS011;38010;53.264;6.592;2023-04-25T06:38:52;1.70;;;0.70;;
51995;SDS011;38010;53.264;6.592;2023-04-25T06:41:18;1.02;;;0.50;;
51995;SDS011;38010;53.264;6.592;2023-04-25T06:43:44;1.30;;;0.60;;
51995;SDS011;38010;53.264;6.592;2023-04-25T06:46:10;1.00;;;0.70;;
51995;SDS011;38010;53.264;6.592;2023-04-25T06:48:36;1.92;;;0.60;;
51995;SDS011;38010;53.264;6.592;2023-04-25T06:51:02;1.38;;;0.60;;
51995;SDS011;38010;53.264;6.592;2023-04-25T06:53:28;0.65;;;0.52;;
51995;SDS011;38010;53.264;6.592;2023-04-25T06:55:54;0.82;;;0.52;;
51995;SDS011;38010;53.264;6.592;2023-04-25T06:58:20;1.17;;;0.52;;
51995;SDS011;38010;53.264;6.592;2023-04-25T07:00:46;1.30;;;0.82;;
51995;SDS011;38010;53.264;6.592;2023-04-25T07:03:11;1.05;;;0.60;;
51995;SDS011;38010;53.264;6.592;2023-04-25T07:05:37;1.27;;;0.50;;
51995;SDS011;38010;53.264;6.592;2023-04-25T07:08:03;1.10;;;0.50;;
51995;SDS011;38010;53.264;6.592;2023-04-25T07:10:29;1.70;;;0.63;;
51995;SDS011;38010;53.264;6.592;2023-04-25T07:12:54;0.90;;;0.60;;
51995;SDS011;38010;53.264;6.592;2023-04-25T07:15:20;0.80;;;0.50;;
51995;SDS011;38010;53.264;6.592;2023-04-25T07:17:46;1.08;;;0.60;;
51995;SDS011;38010;53.264;6.592;2023-04-25T07:20:12;1.17;;;0.60;;
51995;SDS011;38010;53.264;6.592;2023-04-25T07:22:38;0.98;;;0.50;;
51995;SDS011;38010;53.264;6.592;2023-04-25T07:25:04;1.00;;;0.60;;
51995;SDS011;38010;53.264;6.592;2023-04-25T07:27:30;0.55;;;0.50;;
51995;SDS011;38010;53.264;6.592;2023-04-25T07:29:56;0.82;;;0.60;;
51995;SDS011;38010;53.264;6.592;2023-04-25T07:32:22;1.15;;;0.50;;
51995;SDS011;38010;53.264;6.592;2023-04-25T07:34:48;1.02;;;0.65;;
51995;SDS011;38010;53.264;6.592;2023-04-25T07:37:14;0.98;;;0.55;;
51995;SDS011;38010;53.264;6.592;2023-04-25T07:39:40;0.65;;;0.50;;
51995;SDS011;38010;53.264;6.592;2023-04-25T07:42:07;1.00;;;0.60;;
51995;SDS011;38010;53.264;6.592;2023-04-25T07:44:33;0.88;;;0.50;;
51995;SDS011;38010;53.264;6.592;2023-04-25T07:47:09;1.05;;;0.50;;
51995;SDS011;38010;53.264;6.592;2023-04-25T07:49:35;0.70;;;0.50;;
51995;SDS011;38010;53.264;6.592;2023-04-25T07:52:02;0.73;;;0.55;;
51995;SDS011;38010;53.264;6.592;2023-04-25T07:54:30;1.42;;;0.60;;
51995;SDS011;38010;53.264;6.592;2023-04-25T07:56:56;1.15;;;0.52;;
51995;SDS011;38010;53.264;6.592;2023-04-25T07:59:22;1.40;;;0.70;;
51995;SDS011;38010;53.264;6.592;2023-04-25T08:01:48;0.95;;;0.50;;
51995;SDS011;38010;53.264;6.592;2023-04-25T08:04:13;0.50;;;0.50;;
51995;SDS011;38010;53.264;6.592;2023-04-25T08:06:39;0.68;;;0.52;;
51995;SDS011;38010;53.264;6.592;2023-04-25T08:09:05;1.15;;;0.50;;
51995;SDS011;38010;53.264;6.592;2023-04-25T08:11:31;1.08;;;0.50;;
51995;SDS011;38010;53.264;6.592;2023-04-25T08:13:57;0.63;;;0.50;;
51995;SDS011;38010;53.264;6.592;2023-04-25T08:16:23;0.98;;;0.40;;
51995;SDS011;38010;53.264;6.592;2023-04-25T08:18:49;1.23;;;0.57;;
51995;SDS011;38010;53.264;6.592;2023-04-25T08:21:15;0.88;;;0.57;;
51995;SDS011;38010;53.264;6.592;2023-04-25T08:23:41;0.77;;;0.68;;
51995;SDS011;38010;53.264;6.592;2023-04-25T08:26:07;0.40;;;0.40;;
51995;SDS011;38010;53.264;6.592;2023-04-25T08:28:32;1.08;;;0.60;;
51995;SDS011;38010;53.264;6.592;2023-04-25T08:30:58;0.68;;;0.47;;
51995;SDS011;38010;53.264;6.592;2023-04-25T08:33:24;0.82;;;0.50;;
51995;SDS011;38010;53.264;6.592;2023-04-25T08:35:50;1.08;;;0.50;;
51995;SDS011;38010;53.264;6.592;2023-04-25T08:38:17;1.20;;;0.50;;
51995;SDS011;38010;53.264;6.592;2023-04-25T08:40:43;0.85;;;0.50;;
51995;SDS011;38010;53.264;6.592;2023-04-25T08:43:10;0.40;;;0.40;;
51995;SDS011;38010;53.264;6.592;2023-04-25T08:45:40;1.42;;;0.70;;
51995;SDS011;38010;53.264;6.592;2023-04-25T08:48:07;0.50;;;0.40;;
51995;SDS011;38010;53.264;6.592;2023-04-25T08:50:44;2.47;;;0.75;;
51995;SDS011;38010;53.264;6.592;2023-04-25T08:53:15;0.55;;;0.50;;
51995;SDS011;38010;53.264;6.592;2023-04-25T08:55:44;0.40;;;0.40;;
51995;SDS011;38010;53.264;6.592;2023-04-25T08:58:12;1.15;;;0.40;;
51995;SDS011;38010;53.264;6.592;2023-04-25T09:00:38;0.90;;;0.40;;
51995;SDS011;38010;53.264;6.592;2023-04-25T09:03:04;0.95;;;0.50;;
51995;SDS011;38010;53.264;6.592;2023-04-25T09:05:33;1.38;;;0.60;;
51995;SDS011;38010;53.264;6.592;2023-04-25T09:08:01;0.70;;;0.47;;
51995;SDS011;38010;53.264;6.592;2023-04-25T09:10:27;1.42;;;0.40;;
51995;SDS011;38010;53.264;6.592;2023-04-25T09:13:06;0.85;;;0.40;;
51995;SDS011;38010;53.264;6.592;2023-04-25T09:15:56;1.20;;;0.50;;
51995;SDS011;38010;53.264;6.592;2023-04-25T09:20:55;0.50;;;0.30;;
51995;SDS011;38010;53.264;6.592;2023-04-25T09:23:22;0.65;;;0.40;;
51995;SDS011;38010;53.264;6.592;2023-04-25T09:25:49;0.40;;;0.30;;
51995;SDS011;38010;53.264;6.592;2023-04-25T09:28:17;0.60;;;0.40;;
51995;SDS011;38010;53.264;6.592;2023-04-25T09:30:53;0.77;;;0.50;;
51995;SDS011;38010;53.264;6.592;2023-04-25T09:33:23;0.57;;;0.40;;
51995;SDS011;38010;53.264;6.592;2023-04-25T09:35:53;0.77;;;0.50;;
51995;SDS011;38010;53.264;6.592;2023-04-25T09:38:21;0.40;;;0.40;;
51995;SDS011;38010;53.264;6.592;2023-04-25T09:40:47;1.13;;;0.70;;
51995;SDS011;38010;53.264;6.592;2023-04-25T09:43:21;1.40;;;0.40;;
51995;SDS011;38010;53.264;6.592;2023-04-25T09:45:50;1.08;;;0.47;;
51995;SDS011;38010;53.264;6.592;2023-04-25T09:48:18;0.70;;;0.40;;
51995;SDS011;38010;53.264;6.592;2023-04-25T09:50:45;1.52;;;0.50;;
51995;SDS011;38010;53.264;6.592;2023-04-25T09:53:29;1.13;;;0.50;;
51995;SDS011;38010;53.264;6.592;2023-04-25T09:55:55;0.68;;;0.40;;
51995;SDS011;38010;53.264;6.592;2023-04-25T09:58:23;1.23;;;0.40;;
51995;SDS011;38010;53.264;6.592;2023-04-25T10:00:52;0.70;;;0.40;;
51995;SDS011;38010;53.264;6.592;2023-04-25T10:03:20;0.55;;;0.40;;
51995;SDS011;38010;53.264;6.592;2023-04-25T10:05:48;0.70;;;0.40;;
51995;SDS011;38010;53.264;6.592;2023-04-25T10:08:14;1.48;;;0.55;;
51995;SDS011;38010;53.264;6.592;2023-04-25T10:10:41;0.40;;;0.40;;
51995;SDS011;38010;53.264;6.592;2023-04-25T10:13:08;0.85;;;0.50;;
51995;SDS011;38010;53.264;6.592;2023-04-25T10:15:34;1.00;;;0.60;;
51995;SDS011;38010;53.264;6.592;2023-04-25T10:18:02;1.45;;;0.77;;
51995;SDS011;38010;53.264;6.592;2023-04-25T10:20:28;0.80;;;0.43;;
51995;SDS011;38010;53.264;6.592;2023-04-25T10:22:55;0.90;;;0.50;;
51995;SDS011;38010;53.264;6.592;2023-04-25T10:25:30;0.70;;;0.50;;
51995;SDS011;38010;53.264;6.592;2023-04-25T10:27:56;0.52;;;0.50;;
51995;SDS011;38010;53.264;6.592;2023-04-25T10:30:25;1.00;;;0.40;;
51995;SDS011;38010;53.264;6.592;2023-04-25T10:32:51;1.98;;;0.40;;
51995;SDS011;38010;53.264;6.592;2023-04-25T10:35:26;0.95;;;0.50;;
51995;SDS011;38010;53.264;6.592;2023-04-25T10:38:03;0.55;;;0.40;;
51995;SDS011;38010;53.264;6.592;2023-04-25T10:40:37;0.45;;;0.45;;
51995;SDS011;38010;53.264;6.592;2023-04-25T10:48:51;0.77;;;0.50;;
51995;SDS011;38010;53.264;6.592;2023-04-25T10:51:26;0.57;;;0.45;;
51995;SDS011;38010;53.264;6.592;2023-04-25T10:54:00;0.40;;;0.40;;
51995;SDS011;38010;53.264;6.592;2023-04-25T10:56:28;1.27;;;0.40;;
51995;SDS011;38010;53.264;6.592;2023-04-25T10:59:02;1.05;;;0.50;;
51995;SDS011;38010;53.264;6.592;2023-04-25T11:01:39;1.00;;;0.52;;
51995;SDS011;38010;53.264;6.592;2023-04-25T11:04:06;1.10;;;0.50;;
51995;SDS011;38010;53.264;6.592;2023-04-25T11:09:39;0.88;;;0.50;;
51995;SDS011;38010;53.264;6.592;2023-04-25T11:12:06;0.73;;;0.50;;
51995;SDS011;38010;53.264;6.592;2023-04-25T11:14:36;1.42;;;0.50;;
51995;SDS011;38010;53.264;6.592;2023-04-25T11:17:02;0.88;;;0.40;;
51995;SDS011;38010;53.264;6.592;2023-04-25T11:19:28;0.60;;;0.47;;
51995;SDS011;38010;53.264;6.592;2023-04-25T11:21:57;1.70;;;0.75;;
51995;SDS011;38010;53.264;6.592;2023-04-25T11:24:28;1.05;;;0.40;;
51995;SDS011;38010;53.264;6.592;2023-04-25T11:26:55;0.88;;;0.47;;
51995;SDS011;38010;53.264;6.592;2023-04-25T11:29:27;0.75;;;0.50;;
51995;SDS011;38010;53.264;6.592;2023-04-25T11:31:55;1.73;;;0.55;;
51995;SDS011;38010;53.264;6.592;2023-04-25T11:34:25;1.23;;;0.50;;
51995;SDS011;38010;53.264;6.592;2023-04-25T11:36:51;1.90;;;0.68;;
51995;SDS011;38010;53.264;6.592;2023-04-25T11:39:18;1.15;;;0.70;;
51995;SDS011;38010;53.264;6.592;2023-04-25T11:41:44;1.42;;;0.70;;
51995;SDS011;38010;53.264;6.592;2023-04-25T11:44:11;1.83;;;0.70;;
51995;SDS011;38010;53.264;6.592;2023-04-25T11:46:37;2.63;;;1.17;;
51995;SDS011;38010;53.264;6.592;2023-04-25T11:49:02;1.98;;;0.80;;
51995;SDS011;38010;53.264;6.592;2023-04-25T11:51:30;2.15;;;0.90;;
51995;SDS011;38010;53.264;6.592;2023-04-25T11:54:02;1.50;;;0.90;;
51995;SDS011;38010;53.264;6.592;2023-04-25T11:56:28;2.13;;;0.95;;
51995;SDS011;38010;53.264;6.592;2023-04-25T11:58:57;1.40;;;0.80;;
51995;SDS011;38010;53.264;6.592;2023-04-25T12:01:28;1.92;;;0.88;;
51995;SDS011;38010;53.264;6.592;2023-04-25T12:03:55;3.00;;;0.90;;
51995;SDS011;38010;53.264;6.592;2023-04-25T12:06:38;3.35;;;1.10;;
51995;SDS011;38010;53.264;6.592;2023-04-25T12:09:08;2.92;;;1.25;;
51995;SDS011;38010;53.264;6.592;2023-04-25T12:11:42;3.97;;;1.20;;
51995;SDS011;38010;53.264;6.592;2023-04-25T12:14:10;3.38;;;1.23;;
51995;SDS011;38010;53.264;6.592;2023-04-25T12:16:55;3.00;;;1.20;;
51995;SDS011;38010;53.264;6.592;2023-04-25T12:19:22;3.50;;;1.50;;
51995;SDS011;38010;53.264;6.592;2023-04-25T12:21:49;4.97;;;1.50;;
51995;SDS011;38010;53.264;6.592;2023-04-25T12:24:16;3.40;;;1.50;;
51995;SDS011;38010;53.264;6.592;2023-04-25T12:26:54;3.47;;;1.23;;
51995;SDS011;38010;53.264;6.592;2023-04-25T12:29:24;3.53;;;1.42;;
51995;SDS011;38010;53.264;6.592;2023-04-25T12:31:52;4.85;;;2.00;;
51995;SDS011;38010;53.264;6.592;2023-04-25T12:34:19;4.05;;;1.52;;
51995;SDS011;38010;53.264;6.592;2023-04-25T12:36:46;2.83;;;1.50;;
51995;SDS011;38010;53.264;6.592;2023-04-25T12:39:16;3.25;;;1.25;;
51995;SDS011;38010;53.264;6.592;2023-04-25T12:41:43;2.53;;;1.17;;
51995;SDS011;38010;53.264;6.592;2023-04-25T12:44:09;2.95;;;1.20;;
51995;SDS011;38010;53.264;6.592;2023-04-25T12:46:36;2.08;;;1.25;;
51995;SDS011;38010;53.264;6.592;2023-04-25T12:49:02;3.08;;;1.00;;
51995;SDS011;38010;53.264;6.592;2023-04-25T12:51:29;2.90;;;1.17;;
51995;SDS011;38010;53.264;6.592;2023-04-25T12:53:55;2.75;;;1.50;;
51995;SDS011;38010;53.264;6.592;2023-04-25T12:56:21;2.55;;;1.10;;
51995;SDS011;38010;53.264;6.592;2023-04-25T12:58:48;4.22;;;1.25;;
51995;SDS011;38010;53.264;6.592;2023-04-25T13:01:14;2.13;;;1.10;;
51995;SDS011;38010;53.264;6.592;2023-04-25T13:03:40;4.82;;;1.30;;
51995;SDS011;38010;53.264;6.592;2023-04-25T13:06:09;1.92;;;1.00;;
51995;SDS011;38010;53.264;6.592;2023-04-25T13:08:35;3.90;;;0.90;;
51995;SDS011;38010;53.264;6.592;2023-04-25T13:11:02;2.22;;;0.90;;
51995;SDS011;38010;53.264;6.592;2023-04-25T13:13:29;1.98;;;0.80;;
51995;SDS011;38010;53.264;6.592;2023-04-25T13:15:54;3.97;;;1.00;;
51995;SDS011;38010;53.264;6.592;2023-04-25T13:18:20;2.13;;;0.90;;
51995;SDS011;38010;53.264;6.592;2023-04-25T13:20:46;1.55;;;0.70;;
51995;SDS011;38010;53.264;6.592;2023-04-25T13:23:12;3.13;;;0.90;;
51995;SDS011;38010;53.264;6.592;2023-04-25T13:25:37;2.17;;;0.90;;
51995;SDS011;38010;53.264;6.592;2023-04-25T13:28:03;1.65;;;0.70;;
51995;SDS011;38010;53.264;6.592;2023-04-25T13:30:29;1.67;;;0.95;;
51995;SDS011;38010;53.264;6.592;2023-04-25T13:32:55;2.15;;;1.10;;
51995;SDS011;38010;53.264;6.592;2023-04-25T13:35:22;1.98;;;0.95;;
51995;SDS011;38010;53.264;6.592;2023-04-25T13:37:48;2.53;;;0.88;;
51995;SDS011;38010;53.264;6.592;2023-04-25T13:40:15;1.50;;;0.60;;
51995;SDS011;38010;53.264;6.592;2023-04-25T13:42:40;0.95;;;0.65;;
51995;SDS011;38010;53.264;6.592;2023-04-25T13:45:07;2.15;;;0.93;;
51995;SDS011;38010;53.264;6.592;2023-04-25T13:47:34;2.22;;;0.73;;
51995;SDS011;38010;53.264;6.592;2023-04-25T13:49:59;2.15;;;0.80;;
51995;SDS011;38010;53.264;6.592;2023-04-25T13:52:27;2.00;;;0.70;;
51995;SDS011;38010;53.264;6.592;2023-04-25T13:54:54;1.65;;;0.70;;
51995;SDS011;38010;53.264;6.592;2023-04-25T13:57:20;2.63;;;0.70;;
51995;SDS011;38010;53.264;6.592;2023-04-25T13:59:45;1.95;;;0.63;;
51995;SDS011;38010;53.264;6.592;2023-04-25T14:02:11;1.58;;;0.63;;
51995;SDS011;38010;53.264;6.592;2023-04-25T14:04:37;1.90;;;0.52;;
51995;SDS011;38010;53.264;6.592;2023-04-25T14:07:03;1.95;;;0.55;;
51995;SDS011;38010;53.264;6.592;2023-04-25T14:09:30;1.15;;;0.50;;
51995;SDS011;38010;53.264;6.592;2023-04-25T14:11:55;0.93;;;0.43;;
51995;SDS011;38010;53.264;6.592;2023-04-25T14:14:22;1.23;;;0.60;;
51995;SDS011;38010;53.264;6.592;2023-04-25T14:16:48;2.05;;;0.70;;
51995;SDS011;38010;53.264;6.592;2023-04-25T14:19:15;2.55;;;0.80;;
51995;SDS011;38010;53.264;6.592;2023-04-25T14:21:41;1.45;;;0.50;;
51995;SDS011;38010;53.264;6.592;2023-04-25T14:24:08;1.00;;;0.57;;
51995;SDS011;38010;53.264;6.592;2023-04-25T14:26:36;1.85;;;0.70;;
51995;SDS011;38010;53.264;6.592;2023-04-25T14:29:02;1.77;;;0.70;;
51995;SDS011;38010;53.264;6.592;2023-04-25T14:31:30;1.23;;;0.50;;
51995;SDS011;38010;53.264;6.592;2023-04-25T14:33:56;1.60;;;0.60;;
51995;SDS011;38010;53.264;6.592;2023-04-25T14:36:22;2.70;;;0.70;;
51995;SDS011;38010;53.264;6.592;2023-04-25T14:38:48;1.50;;;0.70;;
51995;SDS011;38010;53.264;6.592;2023-04-25T14:41:13;1.08;;;0.68;;
51995;SDS011;38010;53.264;6.592;2023-04-25T14:43:39;3.83;;;0.70;;
51995;SDS011;38010;53.264;6.592;2023-04-25T14:46:06;1.38;;;0.60;;
51995;SDS011;38010;53.264;6.592;2023-04-25T14:48:32;2.15;;;0.60;;
51995;SDS011;38010;53.264;6.592;2023-04-25T14:50:59;2.28;;;0.75;;
51995;SDS011;38010;53.264;6.592;2023-04-25T14:53:25;3.13;;;0.90;;
51995;SDS011;38010;53.264;6.592;2023-04-25T14:55:52;0.65;;;0.50;;
51995;SDS011;38010;53.264;6.592;2023-04-25T14:58:18;2.15;;;0.60;;